Time;durP1;ratioP1;P1;durP2;ratioP2;P2;SDS_P1;SDS_P2;PMS_P1;PMS_P2;Temp;Humidity;BMP_temperature;BMP_pressure;BME280_temperature;BME280_humidity;BME280_pressure;Samples;Min_cycle;Max_cycle;Signal;HPM_P1;HPM_P2
2021/10/18 00:00:28;;;;;;;;;11.33;10.00;;;;;15.77;73.42;101549.25;146608;571;45022;-89
2021/10/18 00:03:02;;;;;;;;;12.50;10.00;;;;;15.69;73.73;101541.94;146604;581;46017;-83
2021/10/18 00:05:36;;;;;;;;;11.33;10.00;;;;;15.70;73.36;101551.59;146610;569;46010;-83
2021/10/18 00:08:10;;;;;;;;;11.50;11.25;;;;;15.69;73.42;101543.66;146603;598;46016;-85
2021/10/18 00:10:44;;;;;;;;;10.50;10.50;;;;;15.66;73.01;101547.00;146602;592;46021;-84
2021/10/18 00:13:18;;;;;;;;;16.25;12.00;;;;;15.65;73.47;101549.56;146603;622;46016;-80
2021/10/18 00:15:53;;;;;;;;;12.00;10.75;;;;;15.64;73.41;101545.16;146603;626;46020;-78
2021/10/18 00:18:27;;;;;;;;;8.50;8.25;;;;;15.60;73.41;101546.72;146601;560;46017;-80
2021/10/18 00:21:01;;;;;;;;;14.00;11.50;;;;;15.61;72.94;101550.25;146603;703;46020;-81
2021/10/18 00:23:34;;;;;;;;;12.75;12.50;;;;;15.60;73.00;101538.00;146601;564;46016;-82
2021/10/18 00:26:09;;;;;;;;;11.00;9.00;;;;;15.60;72.64;101545.84;146604;612;46021;-83
2021/10/18 00:28:42;;;;;;;;;10.50;9.50;;;;;15.62;72.50;101546.81;146603;616;46016;-83
2021/10/18 00:31:17;;;;;;;;;10.67;10.67;;;;;15.63;72.57;101539.03;146608;585;46012;-84
2021/10/18 00:33:51;;;;;;;;;11.67;11.33;;;;;15.65;72.12;101537.38;146602;572;46016;-85
2021/10/18 00:36:25;;;;;;;;;9.00;7.33;;;;;15.67;72.22;101538.37;146603;598;46020;-85
2021/10/18 00:38:59;;;;;;;;;11.00;10.25;;;;;15.70;71.98;101538.50;146603;588;46029;-83
2021/10/18 00:41:33;;;;;;;;;10.67;8.00;;;;;15.72;71.82;101535.94;146607;602;46010;-88
2021/10/18 00:44:07;;;;;;;;;12.25;11.00;;;;;15.74;71.66;101533.41;146603;569;46016;-88
2021/10/18 00:46:43;;;;;;;;;11.67;10.67;;;;;15.74;71.46;101533.41;146606;637;46021;-86
2021/10/18 00:49:17;;;;;;;;;11.00;10.00;;;;;15.75;71.32;101540.44;146602;620;46016;-86
2021/10/18 00:51:52;;;;;;;;;8.50;7.50;;;;;15.75;71.21;101532.59;146605;684;46010;-87
2021/10/18 00:54:25;;;;;;;;;9.00;6.50;;;;;15.78;71.21;101536.22;146603;567;45912;-89
2021/10/18 00:57:00;;;;;;;;;11.00;10.00;;;;;15.82;71.53;101532.00;146607;569;46008;-89
2021/10/18 00:59:37;;;;;;;;;11.25;11.00;;;;;15.85;71.90;101532.13;146603;603;46016;-90
2021/10/18 01:02:11;;;;;;;;;10.33;9.00;;;;;15.86;71.41;101532.22;146609;576;45021;-83
2021/10/18 01:04:46;;;;;;;;;8.50;7.50;;;;;15.89;70.95;101536.69;146602;677;46034;-81
2021/10/18 01:07:20;;;;;;;;;8.25;7.75;;;;;15.86;70.98;101526.09;146605;694;47010;-82
2021/10/18 01:09:54;;;;;;;;;9.25;9.25;;;;;15.82;70.88;101534.63;146602;594;46017;-82
2021/10/18 01:12:29;;;;;;;;;13.25;10.75;;;;;15.79;70.84;101530.16;146606;611;46020;-82
2021/10/18 01:15:03;;;;;;;;;11.50;9.25;;;;;15.78;71.16;101522.25;146603;571;46036;-80
2021/10/18 01:17:37;;;;;;;;;9.25;7.75;;;;;15.78;71.31;101540.56;146603;585;46021;-84
2021/10/18 01:20:17;;;;;;;;;10.00;8.50;;;;;15.77;71.96;101528.31;146605;651;47012;-78
2021/10/18 01:22:51;;;;;;;;;8.75;8.75;;;;;15.75;71.58;101532.59;146604;587;47012;-78
2021/10/18 01:25:25;;;;;;;;;10.67;10.67;;;;;15.74;71.78;101528.19;146602;582;46017;-89
2021/10/18 01:27:59;;;;;;;;;9.00;8.00;;;;;15.73;71.65;101534.22;146605;581;46020;-79
2021/10/18 01:30:33;;;;;;;;;12.75;10.75;;;;;15.73;71.51;101532.50;146602;645;46017;-78
2021/10/18 01:33:08;;;;;;;;;11.00;10.75;;;;;15.72;71.63;101529.84;146601;679;46021;-88
2021/10/18 01:35:43;;;;;;;;;10.00;10.00;;;;;15.73;71.72;101529.00;146601;644;46016;-88
2021/10/18 01:38:17;;;;;;;;;14.75;10.25;;;;;15.73;71.65;101534.22;146606;592;47010;-86
2021/10/18 01:40:50;;;;;;;;;11.75;10.25;;;;;15.69;71.65;101523.62;146602;582;46016;-85
2021/10/18 01:43:24;;;;;;;;;11.00;10.00;;;;;15.64;72.00;101530.38;146604;619;46020;-85
2021/10/18 01:46:03;;;;;;;;;12.75;11.25;;;;;15.59;71.89;101544.94;146597;602;46016;-86
2021/10/18 01:48:37;;;;;;;;;13.00;11.00;;;;;15.54;71.99;101533.38;146606;586;46020;-83
2021/10/18 01:51:14;;;;;;;;;12.25;10.75;;;;;15.52;72.30;101545.50;146600;563;47012;-85
2021/10/18 01:53:48;;;;;;;;;13.00;11.00;;;;;15.45;72.34;101544.34;146605;622;47010;-83
2021/10/18 01:56:22;;;;;;;;;12.50;11.00;;;;;15.32;72.66;101534.16;146598;565;47912;-76
2021/10/18 01:58:56;;;;;;;;;14.25;11.50;;;;;15.31;72.91;101540.22;146605;576;46020;-77
2021/10/18 02:01:30;;;;;;;;;9.25;8.75;;;;;15.22;73.03;101534.56;146600;604;46017;-76
2021/10/18 02:04:04;;;;;;;;;10.75;9.25;;;;;15.14;72.98;101538.53;146602;569;46020;-76
2021/10/18 02:06:38;;;;;;;;;11.75;10.75;;;;;15.04;73.57;101528.50;146601;618;46025;-76
2021/10/18 02:09:12;;;;;;;;;10.75;7.00;;;;;14.98;73.00;101529.13;146602;684;46021;-77
2021/10/18 02:11:46;;;;;;;;;9.00;8.75;;;;;14.94;73.06;101522.88;146603;602;46016;-76
2021/10/18 02:14:20;;;;;;;;;10.25;9.75;;;;;14.92;73.20;101527.12;146606;675;46020;-75
2021/10/18 02:16:54;;;;;;;;;14.25;11.50;;;;;14.89;73.30;101528.69;146602;564;47012;-76
2021/10/18 02:19:28;;;;;;;;;9.00;8.00;;;;;14.89;73.09;101526.06;146606;567;46020;-75
2021/10/18 02:22:02;;;;;;;;;10.50;9.75;;;;;14.83;73.26;101524.09;146601;668;46016;-76
2021/10/18 02:24:36;;;;;;;;;8.75;8.25;;;;;14.83;73.12;101529.31;146607;569;46021;-76
2021/10/18 02:27:09;;;;;;;;;10.50;9.00;;;;;14.80;73.02;101531.78;146604;564;46016;-76
2021/10/18 02:29:44;;;;;;;;;9.75;9.75;;;;;14.79;73.09;101523.03;146608;579;46020;-76
2021/10/18 02:32:18;;;;;;;;;11.25;8.50;;;;;14.76;73.09;101528.13;146603;664;46017;-77
2021/10/18 02:34:52;;;;;;;;;7.75;7.50;;;;;14.75;72.80;101523.72;146602;603;46020;-77
2021/10/18 02:37:25;;;;;;;;;8.75;8.75;;;;;14.72;72.89;101528.81;146601;576;46016;-78
2021/10/18 02:39:59;;;;;;;;;10.50;8.00;;;;;14.72;73.06;101525.31;146600;586;47010;-78
2021/10/18 02:42:33;;;;;;;;;9.75;7.75;;;;;14.70;72.93;101524.31;146602;618;46016;-77
2021/10/18 02:45:09;;;;;;;;;7.25;6.25;;;;;14.67;73.41;101529.41;146606;624;46010;-76
2021/10/18 02:47:43;;;;;;;;;11.00;11.00;;;;;14.63;73.39;101527.47;146603;745;46016;-79
2021/10/18 02:50:17;;;;;;;;;10.75;8.75;;;;;14.60;73.60;101530.81;146603;565;46020;-80
2021/10/18 02:52:50;;;;;;;;;10.50;9.50;;;;;14.60;73.86;101529.94;146602;564;46016;-80
2021/10/18 02:55:24;;;;;;;;;10.50;10.50;;;;;14.59;74.25;101531.66;146605;693;45021;-83
2021/10/18 02:57:58;;;;;;;;;15.25;8.75;;;;;14.58;74.64;101539.41;146602;634;46016;-80
2021/10/18 03:00:32;;;;;;;;;11.25;9.00;;;;;14.54;74.67;101536.66;146603;573;46021;-81
2021/10/18 03:03:06;;;;;;;;;10.75;9.50;;;;;14.49;74.12;101543.34;146601;691;47012;-77
2021/10/18 03:05:40;;;;;;;;;8.50;8.50;;;;;14.46;74.26;101535.37;146606;569;46012;-78
2021/10/18 03:08:14;;;;;;;;;11.00;9.50;;;;;14.42;74.42;101540.34;146603;580;46016;-82
2021/10/18 03:10:48;;;;;;;;;9.50;9.50;;;;;14.40;74.13;101542.91;146605;639;46020;-81
2021/10/18 03:13:22;;;;;;;;;14.25;12.50;;;;;14.40;74.43;101555.06;146602;639;46016;-80
2021/10/18 03:15:56;;;;;;;;;13.25;12.00;;;;;14.37;74.59;101549.69;146605;665;46010;-79
2021/10/18 03:18:30;;;;;;;;;14.00;14.00;;;;;14.33;75.33;101554.75;146603;648;46016;-77
2021/10/18 03:21:04;;;;;;;;;18.00;16.00;;;;;14.30;74.51;101554.59;146603;712;47010;-77
2021/10/18 03:23:37;;;;;;;;;13.00;13.00;;;;;14.32;74.37;101554.66;146601;620;47012;-79
2021/10/18 03:26:11;;;;;;;;;15.50;13.25;;;;;14.32;74.65;101555.53;146601;589;46020;-81
2021/10/18 03:28:46;;;;;;;;;14.50;12.00;;;;;14.30;74.80;101541.56;146601;563;46016;-80
2021/10/18 03:31:20;;;;;;;;;13.00;11.50;;;;;14.25;74.73;101548.25;146605;581;46013;-78
2021/10/18 03:33:54;;;;;;;;;14.75;11.25;;;;;14.21;74.79;101554.16;146603;617;47012;-77
2021/10/18 03:36:28;;;;;;;;;11.50;11.00;;;;;14.15;74.99;101546.00;146604;580;47010;-77
2021/10/18 03:39:02;;;;;;;;;10.25;10.25;;;;;14.14;74.66;101553.75;146602;594;46012;-77
2021/10/18 03:41:41;;;;;;;;;12.75;11.75;;;;;14.14;75.23;101549.41;146602;563;46020;-77
2021/10/18 03:44:15;;;;;;;;;10.00;10.00;;;;;14.12;75.33;101548.47;146606;742;45912;-75
2021/10/18 03:46:49;;;;;;;;;13.00;11.00;;;;;14.08;75.37;101555.25;146603;662;46021;-74
2021/10/18 03:49:23;;;;;;;;;12.00;10.50;;;;;14.05;75.79;101538.56;146603;597;46016;-77
2021/10/18 03:51:57;;;;;;;;;11.25;10.50;;;;;14.03;75.37;101541.06;146604;618;47008;-77
2021/10/18 03:54:31;;;;;;;;;9.50;8.75;;;;;14.04;75.71;101541.97;146602;692;46016;-78
2021/10/18 03:57:05;;;;;;;;;10.75;10.75;;;;;14.05;75.78;101542.06;146607;569;46020;-78
2021/10/18 03:59:39;;;;;;;;;12.75;10.75;;;;;14.08;75.72;101543.91;146602;620;47018;-79
2021/10/18 04:02:14;;;;;;;;;10.00;9.00;;;;;14.11;75.53;101544.03;146606;590;46010;-78
2021/10/18 04:04:48;;;;;;;;;10.75;8.50;;;;;14.18;75.45;101547.88;146603;570;46016;-79
2021/10/18 04:07:22;;;;;;;;;9.75;9.75;;;;;14.21;75.53;101545.44;146607;569;46011;-79
2021/10/18 04:10:02;;;;;;;;;13.25;12.75;;;;;14.22;75.62;101548.09;146603;651;45911;-79
2021/10/18 04:12:36;;;;;;;;;12.75;11.00;;;;;14.22;75.73;101542.88;146604;619;47010;-78
2021/10/18 04:15:12;;;;;;;;;11.50;11.25;;;;;14.23;75.60;101548.97;146604;573;47012;-87
2021/10/18 04:17:45;;;;;;;;;10.50;9.50;;;;;14.24;75.30;101545.59;146598;670;46020;-86
2021/10/18 04:20:19;;;;;;;;;11.25;11.25;;;;;14.28;75.94;101544.91;146601;570;48018;-76
2021/10/18 04:22:53;;;;;;;;;13.00;12.00;;;;;14.26;75.73;101547.41;146606;579;46010;-77
2021/10/18 04:25:28;;;;;;;;;10.25;8.25;;;;;14.29;75.96;101558.00;146601;661;46016;-76
2021/10/18 04:28:02;;;;;;;;;11.75;11.75;;;;;14.29;75.55;101557.12;146604;704;47010;-77
2021/10/18 04:30:36;;;;;;;;;10.50;10.25;;;;;14.31;75.24;101548.56;146604;588;47012;-77
2021/10/18 04:33:10;;;;;;;;;11.50;8.00;;;;;14.35;75.33;101546.09;146608;630;45020;-78
2021/10/18 04:35:54;;;;;;;;;10.50;9.00;;;;;14.36;74.81;101556.63;146601;595;46017;-83
2021/10/18 04:38:27;;;;;;;;;13.25;11.50;;;;;14.39;75.12;101558.47;146595;579;48008;-82
2021/10/18 04:41:01;;;;;;;;;13.75;11.75;;;;;14.41;75.11;101564.66;146600;609;46016;-87
2021/10/18 04:43:35;;;;;;;;;10.00;8.00;;;;;14.41;75.00;101567.28;146601;566;46021;-90
2021/10/18 04:46:09;;;;;;;;;11.75;10.75;;;;;14.36;75.08;101564.44;146601;648;46016;-88
2021/10/18 04:48:43;;;;;;;;;16.50;15.50;;;;;14.31;75.51;101569.44;146604;743;46020;-85
2021/10/18 04:51:17;;;;;;;;;13.75;10.25;;;;;13.22;75.28;101393.59;146604;569;46017;-84
2021/10/18 04:53:51;;;;;;;;;15.25;13.50;;;;;14.22;75.60;101581.12;146605;653;47010;-85
2021/10/18 04:56:25;;;;;;;;;16.25;14.50;;;;;14.16;75.77;101578.19;146602;577;46016;-76
2021/10/18 04:58:59;;;;;;;;;19.25;15.75;;;;;14.11;76.21;101575.34;146606;674;46020;-75
2021/10/18 05:01:33;;;;;;;;;13.25;9.75;;;;;14.06;76.02;101577.75;146601;639;46016;-75
2021/10/18 05:04:07;;;;;;;;;16.75;14.50;;;;;14.05;76.27;101585.50;146605;579;45022;-73
2021/10/18 05:06:41;;;;;;;;;16.25;12.75;;;;;14.03;76.55;101585.41;146600;609;46017;-75
2021/10/18 05:09:15;;;;;;;;;20.00;14.00;;;;;13.98;76.38;101584.25;146601;598;46020;-75
2021/10/18 05:11:49;;;;;;;;;15.00;12.00;;;;;14.02;76.13;101593.16;146603;624;46016;-81
2021/10/18 05:14:23;;;;;;;;;16.50;14.25;;;;;14.01;76.40;101589.63;146605;608;46021;-80
2021/10/18 05:16:57;;;;;;;;;16.00;14.25;;;;;14.03;75.91;101593.22;146605;627;46012;-80
2021/10/18 05:19:31;;;;;;;;;16.50;15.75;;;;;14.05;76.09;101604.66;146606;602;46020;-82
2021/10/18 05:22:05;;;;;;;;;17.25;15.00;;;;;14.10;76.09;101603.16;146602;575;47910;-82
2021/10/18 05:24:39;;;;;;;;;19.50;16.00;;;;;14.48;76.47;101608.50;146604;635;47010;-81
2021/10/18 05:27:13;;;;;;;;;20.50;17.25;;;;;15.18;74.94;101603.19;146603;591;47012;-83
2021/10/18 05:29:47;;;;;;;;;21.00;17.75;;;;;16.00;73.25;101607.75;146606;588;47010;-82
2021/10/18 05:32:22;;;;;;;;;21.25;16.75;;;;;16.90;72.14;101610.66;146602;670;46016;-81
2021/10/18 05:34:56;;;;;;;;;14.50;13.25;;;;;17.86;69.33;101613.44;146606;621;46010;-82
2021/10/18 05:37:30;;;;;;;;;14.50;13.50;;;;;18.72;65.94;101604.06;146601;615;46016;-80
2021/10/18 05:40:04;;;;;;;;;15.25;13.25;;;;;19.44;62.67;101614.22;146603;725;46020;-81
2021/10/18 05:42:38;;;;;;;;;13.75;13.25;;;;;19.91;62.46;101614.69;146598;570;48013;-80
2021/10/18 05:45:12;;;;;;;;;12.75;12.00;;;;;20.36;61.45;101611.47;146603;629;46910;-79
2021/10/18 05:48:12;;;;;;;;;19.50;16.25;;;;;20.88;59.93;101609.25;146603;628;47012;-79
2021/10/18 05:50:56;;;;;;;;;15.00;14.50;;;;;21.30;59.56;101611.94;146605;595;46020;-78
2021/10/18 05:53:33;;;;;;;;;12.00;11.50;;;;;21.71;58.66;101621.59;146598;616;47014;-80
2021/10/18 05:56:07;;;;;;;;;16.75;14.50;;;;;22.13;57.79;101622.41;146604;619;46020;-79
2021/10/18 05:58:41;;;;;;;;;19.25;14.50;;;;;22.56;56.97;101624.97;146601;579;46017;-80
2021/10/18 06:01:15;;;;;;;;;15.50;14.25;;;;;22.97;55.97;101627.38;146598;637;48008;-80
2021/10/18 06:03:49;;;;;;;;;19.25;15.75;;;;;23.27;55.26;101626.91;146601;593;47012;-79
2021/10/18 06:06:23;;;;;;;;;17.25;17.00;;;;;23.51;54.93;101629.00;146602;662;47012;-79
2021/10/18 06:08:58;;;;;;;;;19.00;19.00;;;;;23.62;54.26;101624.72;146600;569;46016;-80
2021/10/18 06:11:32;;;;;;;;;16.75;16.25;;;;;23.61;53.01;101635.28;146606;566;46010;-79
2021/10/18 06:14:06;;;;;;;;;16.00;13.00;;;;;23.41;53.48;101635.94;146600;602;47012;-80
2021/10/18 06:16:40;;;;;;;;;18.25;17.00;;;;;23.03;53.90;101644.22;146605;619;46020;-80
2021/10/18 06:19:14;;;;;;;;;19.75;18.25;;;;;22.59;54.75;101636.47;146602;577;47013;-79
2021/10/18 06:21:48;;;;;;;;;17.50;15.50;;;;;22.21;55.69;101642.84;146605;646;47010;-80
2021/10/18 06:24:22;;;;;;;;;20.75;18.50;;;;;21.91;56.21;101639.63;146602;636;46012;-79
2021/10/18 06:26:56;;;;;;;;;20.75;19.50;;;;;21.73;57.25;101646.28;146602;579;46020;-79
2021/10/18 06:29:31;;;;;;;;;16.75;15.50;;;;;21.65;57.84;101644.41;146599;680;47012;-79
2021/10/18 06:32:06;;;;;;;;;15.00;14.75;;;;;21.62;58.21;101652.25;146605;696;46020;-80
2021/10/18 06:34:40;;;;;;;;;20.00;17.50;;;;;21.62;58.21;101646.97;146603;564;47012;-79
2021/10/18 06:37:14;;;;;;;;;17.75;16.50;;;;;21.63;58.90;101647.84;146605;569;47010;-79
2021/10/18 06:39:48;;;;;;;;;21.50;19.50;;;;;21.57;58.44;101659.16;146603;649;46016;-79
2021/10/18 06:42:22;;;;;;;;;18.25;16.50;;;;;21.36;58.47;101656.94;146605;588;46021;-78
2021/10/18 06:44:56;;;;;;;;;23.00;21.25;;;;;21.08;59.01;101667.72;146602;655;46016;-77
2021/10/18 06:47:30;;;;;;;;;16.25;16.25;;;;;20.77;59.03;101667.87;146604;652;46020;-79
2021/10/18 06:50:04;;;;;;;;;14.00;12.00;;;;;20.50;60.19;101660.16;146602;647;47012;-77
2021/10/18 06:52:41;;;;;;;;;16.25;13.00;;;;;20.43;60.53;101670.47;146602;676;47010;-78
2021/10/18 06:55:17;;;;;;;;;16.75;14.75;;;;;20.50;60.63;101670.69;146602;589;47012;-77
2021/10/18 06:57:51;;;;;;;;;15.50;14.50;;;;;19.84;59.89;101545.22;146606;579;46010;-79
2021/10/18 07:00:25;;;;;;;;;14.50;13.50;;;;;20.70;61.31;101676.47;146599;664;46018;-79
2021/10/18 07:02:59;;;;;;;;;15.50;14.50;;;;;20.84;61.21;101674.19;146604;600;46020;-78
2021/10/18 07:05:35;;;;;;;;;14.25;14.25;;;;;21.02;60.89;101675.47;146604;571;46912;-79
2021/10/18 07:08:09;;;;;;;;;16.67;14.00;;;;;21.11;60.44;101680.97;146607;645;46020;-77
2021/10/18 07:10:43;;;;;;;;;16.00;14.67;;;;;21.15;61.04;101681.09;146604;570;47012;-79
2021/10/18 07:13:17;;;;;;;;;15.33;14.33;;;;;21.18;60.10;101678.53;146603;645;46021;-77
2021/10/18 07:15:51;;;;;;;;;13.00;12.00;;;;;21.18;59.50;101678.53;146603;608;47012;-79
2021/10/18 07:18:27;;;;;;;;;13.33;12.33;;;;;21.09;59.68;101683.59;146607;583;46011;-79
2021/10/18 07:21:01;;;;;;;;;13.67;13.00;;;;;20.97;59.87;101675.38;146603;612;46012;-77
2021/10/18 07:23:35;;;;;;;;;12.67;12.33;;;;;20.84;60.74;101678.56;146604;635;46020;-78
2021/10/18 07:26:09;;;;;;;;;15.33;14.33;;;;;20.73;61.20;101680.94;146604;681;47012;-77
2021/10/18 07:28:43;;;;;;;;;18.00;16.00;;;;;20.62;62.19;101682.41;146604;658;47010;-76
2021/10/18 07:31:17;;;;;;;;;16.33;14.00;;;;;20.50;61.52;101683.84;146600;579;46016;-75
2021/10/18 07:33:54;;;;;;;;;17.75;16.25;;;;;20.36;62.18;101692.25;146604;626;46021;-77
2021/10/18 07:36:28;;;;;;;;;17.00;15.75;;;;;20.25;61.63;101698.13;146598;610;47012;-75
2021/10/18 07:39:05;;;;;;;;;15.00;14.00;;;;;20.16;61.98;101697.87;146601;590;47012;-76
2021/10/18 07:41:39;;;;;;;;;15.33;14.33;;;;;20.10;63.21;101696.81;146602;585;46017;-76
2021/10/18 07:44:13;;;;;;;;;10.00;9.67;;;;;20.05;63.18;101699.31;146606;577;46012;-76
2021/10/18 07:46:48;;;;;;;;;16.00;13.00;;;;;20.06;63.40;101695.81;146604;688;46911;-76
2021/10/18 07:49:21;;;;;;;;;15.33;11.33;;;;;20.16;63.29;101694.34;146605;574;46013;-76
2021/10/18 07:51:55;;;;;;;;;12.67;11.33;;;;;20.29;61.86;101701.72;146602;563;46016;-76
2021/10/18 07:54:30;;;;;;;;;12.00;11.00;;;;;20.33;62.61;101693.03;146607;584;46020;-76
2021/10/18 07:57:04;;;;;;;;;11.00;10.00;;;;;20.36;61.82;101706.28;146603;569;46912;-76
2021/10/18 07:59:38;;;;;;;;;10.00;8.67;;;;;20.36;62.20;101700.16;146607;582;46010;-76
2021/10/18 08:02:12;;;;;;;;;10.00;9.00;;;;;20.31;60.81;101697.38;146604;572;47013;-75
2021/10/18 08:04:46;;;;;;;;;9.00;7.00;;;;;20.25;61.70;101695.50;146606;571;47021;-76
2021/10/18 08:07:26;;;;;;;;;11.00;10.67;;;;;20.23;61.54;101699.81;146603;674;47012;-76
2021/10/18 08:10:00;;;;;;;;;16.25;13.00;;;;;20.19;60.72;101697.97;146601;591;47013;-76
2021/10/18 08:12:34;;;;;;;;;10.00;8.33;;;;;20.13;61.69;101705.69;146605;614;46012;-75
2021/10/18 08:15:08;;;;;;;;;8.00;8.00;;;;;20.13;61.56;101708.31;146607;583;46008;-76
2021/10/18 08:17:42;;;;;;;;;11.33;11.33;;;;;20.16;62.44;101716.31;146605;681;46013;-76
2021/10/18 08:20:16;;;;;;;;;13.00;10.00;;;;;20.21;62.67;101709.41;146607;642;46020;-75
2021/10/18 08:22:50;;;;;;;;;11.67;11.00;;;;;20.27;61.87;101706.94;146604;625;46034;-75
2021/10/18 08:25:24;;;;;;;;;11.67;11.33;;;;;20.26;61.02;101709.53;146606;720;46021;-75
2021/10/18 08:27:58;;;;;;;;;15.67;10.33;;;;;20.19;60.95;101708.50;146603;588;46016;-76
2021/10/18 08:30:33;;;;;;;;;12.33;10.00;;;;;20.16;62.57;101705.78;146604;609;47012;-75
2021/10/18 08:33:10;;;;;;;;;12.00;11.00;;;;;20.17;62.50;101712.81;146600;599;46911;-76
2021/10/18 08:35:44;;;;;;;;;10.67;9.33;;;;;20.18;62.42;101711.94;146606;577;47010;-77
2021/10/18 08:41:23;;;;;;;;;11.67;9.67;;;;;20.24;62.60;101705.97;146608;566;46010;-76
2021/10/18 08:44:16;;;;;;;;;9.67;9.67;;;;;20.27;62.31;101708.69;146601;610;46016;-75
2021/10/18 08:46:52;;;;;;;;;8.67;8.67;;;;;20.41;63.10;101711.72;146602;594;46021;-76
2021/10/18 08:49:26;;;;;;;;;13.00;10.25;;;;;20.67;63.19;101712.41;146603;583;46029;-76
2021/10/18 08:52:11;;;;;;;;;13.25;12.00;;;;;20.91;62.57;101714.78;146606;718;46020;-76
2021/10/18 08:54:46;;;;;;;;;14.25;13.00;;;;;21.02;61.43;101712.41;146604;662;46912;-76
2021/10/18 08:57:20;;;;;;;;;12.00;12.00;;;;;21.03;61.93;101707.16;146606;645;46020;-77
2021/10/18 08:59:54;;;;;;;;;11.00;10.00;;;;;21.16;62.57;101708.34;146604;584;46016;-75
2021/10/18 09:02:42;;;;;;;;;11.67;11.33;;;;;21.45;62.62;101702.00;146603;569;47010;-75
2021/10/18 09:05:25;;;;;;;;;10.00;9.00;;;;;21.72;61.46;101705.22;146601;563;46016;-75
2021/10/18 09:07:59;;;;;;;;;10.33;9.33;;;;;22.00;60.45;101706.69;146606;629;47010;-76
2021/10/18 09:10:40;;;;;;;;;10.25;8.00;;;;;22.27;60.04;101709.00;146600;572;46018;-76
2021/10/18 09:13:17;;;;;;;;;10.33;10.33;;;;;22.44;59.33;101710.22;146607;571;46020;-76
2021/10/18 09:15:55;;;;;;;;;12.67;10.33;;;;;22.44;59.05;101709.31;146601;584;46907;-75
2021/10/18 09:18:29;;;;;;;;;14.33;10.67;;;;;22.36;58.83;101711.81;146605;590;46021;-74
2021/10/18 09:21:03;;;;;;;;;9.67;8.67;;;;;22.27;58.21;101714.28;146600;600;46016;-75
2021/10/18 09:23:40;;;;;;;;;8.67;8.00;;;;;22.20;59.58;101702.72;146605;566;46021;-75
2021/10/18 09:26:16;;;;;;;;;11.50;10.00;;;;;22.17;60.29;101696.47;146602;578;47012;-76
2021/10/18 09:28:50;;;;;;;;;7.00;7.00;;;;;22.33;59.51;101699.41;146602;565;46020;-75
2021/10/18 09:31:24;;;;;;;;;9.00;7.67;;;;;22.52;59.38;101700.69;146605;574;46016;-74
2021/10/18 09:34:19;;;;;;;;;11.67;10.67;;;;;22.66;59.22;101692.09;146607;571;46020;-77
2021/10/18 09:36:53;;;;;;;;;8.33;8.00;;;;;22.68;57.86;101693.91;146605;604;45911;-76
2021/10/18 09:39:31;;;;;;;;;9.67;9.33;;;;;22.73;59.13;101686.91;146606;628;47008;-75
2021/10/18 09:42:15;;;;;;;;;9.00;8.67;;;;;22.75;58.45;101694.87;146603;622;46911;-77
2021/10/18 09:45:26;;;;;;;;;11.00;11.00;;;;;21.54;58.87;101507.81;146607;591;47021;-75
2021/10/18 10:53:48;;;;;;;;;8.00;8.00;;;;;23.36;55.71;101656.13;146605;593;46034;-76
2021/10/18 10:56:43;;;;;;;;;10.33;9.67;;;;;23.49;57.55;101641.34;146606;563;46020;-77
2021/10/18 10:59:28;;;;;;;;;7.67;7.67;;;;;23.54;54.19;101642.25;146604;676;46017;-77
2021/10/18 11:02:12;;;;;;;;;11.33;10.00;;;;;23.43;55.74;101628.03;146608;564;46020;-77
2021/10/18 11:04:50;;;;;;;;;8.33;8.00;;;;;23.27;53.92;101633.13;146601;597;46016;-78
2021/10/18 11:07:58;;;;;;;;;8.33;7.00;;;;;21.48;56.06;101315.06;146608;586;45021;-78
2021/10/18 11:10:33;;;;;;;;;8.33;8.00;;;;;23.34;54.72;101619.97;146603;573;46016;-75
2021/10/18 11:13:11;;;;;;;;;10.00;9.00;;;;;23.48;54.13;101619.25;146604;591;46020;-77
2021/10/18 11:15:45;;;;;;;;;9.00;8.33;;;;;23.49;52.95;101626.34;146602;604;46017;-78
2021/10/18 11:18:27;;;;;;;;;8.67;8.33;;;;;23.47;53.60;101625.41;146604;588;47010;-79
2021/10/18 11:21:14;;;;;;;;;8.67;8.33;;;;;23.47;54.60;101630.72;146601;581;47012;-77
2021/10/18 11:24:23;;;;;;;;;10.33;10.00;;;;;22.15;55.40;101416.44;146607;575;46021;-76
2021/10/18 11:26:58;;;;;;;;;9.67;8.67;;;;;23.36;52.82;101627.03;146601;570;46016;-78
2021/10/18 11:29:37;;;;;;;;;7.67;7.67;;;;;23.33;52.73;101626.09;146606;577;46021;-76
2021/10/18 11:32:13;;;;;;;;;9.67;9.67;;;;;23.26;55.26;101626.03;146602;677;46016;-76
2021/10/18 11:34:47;;;;;;;;;9.00;9.00;;;;;23.17;52.58;101623.25;146608;645;45028;-78
2021/10/18 11:37:21;;;;;;;;;8.67;8.33;;;;;22.96;53.90;101623.87;146604;583;47013;-77
2021/10/18 11:39:55;;;;;;;;;10.33;10.00;;;;;22.73;54.75;101622.56;146604;569;46020;-76
2021/10/18 11:42:29;;;;;;;;;7.67;7.67;;;;;22.56;55.32;101620.56;146602;575;46016;-76
2021/10/18 11:45:03;;;;;;;;;8.00;8.00;;;;;22.36;55.86;101622.84;146607;594;46020;-76
2021/10/18 11:47:42;;;;;;;;;8.33;8.33;;;;;22.17;56.48;101617.22;146602;588;46016;-76
2021/10/18 11:50:29;;;;;;;;;11.33;10.00;;;;;21.98;58.31;101611.56;146602;563;46908;-76
2021/10/18 11:53:04;;;;;;;;;10.67;8.00;;;;;21.80;57.17;101616.50;146602;594;46017;-76
2021/10/18 11:55:46;;;;;;;;;11.67;8.00;;;;;21.66;58.51;101619.78;146605;600;46020;-77
2021/10/18 11:58:42;;;;;;;;;13.00;11.00;;;;;20.49;62.16;101439.69;146605;601;47015;-76
2021/10/18 12:01:18;;;;;;;;;14.00;11.67;;;;;21.47;64.08;101619.38;146605;597;46020;-75
2021/10/18 12:03:53;;;;;;;;;13.33;10.33;;;;;21.33;63.09;101624.31;146604;602;46018;-76
2021/10/18 12:06:27;;;;;;;;;7.00;7.00;;;;;21.21;64.18;101622.28;146599;601;47013;-76
2021/10/18 12:09:04;;;;;;;;;13.33;10.33;;;;;21.10;65.18;101621.19;146606;633;46012;-76
2021/10/18 12:11:38;;;;;;;;;10.00;10.00;;;;;21.04;65.77;101621.03;146606;616;46020;-76
2021/10/18 12:14:12;;;;;;;;;10.33;10.33;;;;;21.02;66.05;101631.53;146603;627;46017;-75
2021/10/18 12:16:46;;;;;;;;;12.67;12.00;;;;;20.99;66.73;101619.16;146604;600;46020;-76
2021/10/18 12:19:24;;;;;;;;;10.67;10.67;;;;;20.99;64.67;101620.91;146604;582;47012;-76
2021/10/18 12:22:09;;;;;;;;;11.33;9.33;;;;;20.95;63.98;101617.31;146607;591;47010;-75
2021/10/18 12:24:43;;;;;;;;;12.33;10.33;;;;;20.91;65.31;101623.41;146602;626;46016;-75
2021/10/18 12:27:30;;;;;;;;;11.33;11.33;;;;;20.88;63.85;101619.81;146606;627;46020;-76
2021/10/18 12:30:04;;;;;;;;;13.00;13.00;;;;;20.83;63.37;101618.78;146604;564;46016;-76
2021/10/18 12:32:38;;;;;;;;;11.67;11.67;;;;;20.74;63.38;101619.47;146606;638;45907;-76
2021/10/18 12:35:12;;;;;;;;;13.33;13.00;;;;;20.67;63.54;101620.19;146602;578;46016;-77
2021/10/18 12:37:55;;;;;;;;;14.00;12.67;;;;;20.57;63.01;101616.44;146607;599;46021;-76
2021/10/18 12:40:28;;;;;;;;;14.50;13.75;;;;;20.48;64.11;101619.69;146603;586;46016;-76
2021/10/18 12:43:02;;;;;;;;;15.00;12.67;;;;;20.46;63.61;101629.28;146602;577;46021;-76
2021/10/18 12:45:38;;;;;;;;;13.00;12.67;;;;;20.41;64.04;101630.03;146602;666;46016;-76
2021/10/18 12:48:12;;;;;;;;;11.67;9.67;;;;;20.37;64.83;101633.44;146608;634;46020;-76
2021/10/18 12:50:47;;;;;;;;;14.25;13.25;;;;;20.34;65.28;101630.72;146601;641;46017;-77
2021/10/18 12:53:35;;;;;;;;;11.33;10.33;;;;;20.29;64.79;101628.88;146605;571;46021;-75
2021/10/18 12:56:25;;;;;;;;;10.67;9.33;;;;;20.21;63.97;101618.97;146602;599;46016;-76
2021/10/18 12:59:14;;;;;;;;;15.00;11.67;;;;;20.09;64.87;101616.91;146606;606;46029;-76
2021/10/18 13:01:47;;;;;;;;;18.50;18.50;;;;;20.02;65.03;101614.97;146601;598;47018;-76